This is the latest recevied weather packets stored in our database for station/object DG1GMY-13. If no packets are shown the sender has not sent any weather packets the latest 10 day(s).
| Time | Temp. | Humidity | Pressure | Rain* | Wind** | Luminosity | Snow |
|---|---|---|---|---|---|---|---|
| 1787571219 | 23.89° C | 43% | 1017.9 hPa | - | - | - | - |
| 1787569413 | 23.33° C | 46% | 1018.1 hPa | - | - | - | - |
| 1787567608 | 22.22° C | 51% | 1018.8 hPa | - | - | - | - |
| 1787565802 | 21.67° C | 50% | 1019.3 hPa | - | - | - | - |
| 1787563996 | 20° C | 52% | 1019.7 hPa | - | - | - | - |
| 1787562190 | 19.44° C | 53% | 1019.9 hPa | - | - | - | - |
| 1787560384 | 18.89° C | 54% | 1020.3 hPa | - | - | - | - |
| 1787556772 | 16.67° C | 59% | 1020.8 hPa | - | - | - | - |
| 1787554967 | 16.11° C | 62% | 1020.9 hPa | - | - | - | - |
| 1787553160 | 14.44° C | 66% | 1020.8 hPa | - | - | - | - |
| 1787551354 | 13.33° C | 72% | 1020.9 hPa | - | - | - | - |
| 1787549548 | 12.22° C | 72% | 1021.1 hPa | - | - | - | - |
| 1787547742 | 12.22° C | 72% | 1021 hPa | - | - | - | - |
| 1787545936 | 12.22° C | 73% | 1021 hPa | - | - | - | - |
| 1787544130 | 12.22° C | 72% | 1021.3 hPa | - | - | - | - |
| 1787542324 | 12.78° C | 69% | 1021.1 hPa | - | - | - | - |
| 1787540518 | 13.33° C | 67% | 1021.6 hPa | - | - | - | - |
| 1787538712 | 12.22° C | 71% | 1021.8 hPa | - | - | - | - |
| 1787536905 | 13.33° C | 69% | 1021.9 hPa | - | - | - | - |
| 1787535100 | 13.33° C | 66% | 1021.8 hPa | - | - | - | - |
| 1787533294 | 14.44° C | 61% | 1021.8 hPa | - | - | - | - |
| 1787531487 | 14.44° C | 60% | 1021.9 hPa | - | - | - | - |
| 1787529682 | 15° C | 58% | 1022.2 hPa | - | - | - | - |
| 1787527876 | 15.56° C | 56% | 1022.3 hPa | - | - | - | - |
| 1787526070 | 15.56° C | 55% | 1022.6 hPa | - | - | - | - |
* Rain since midnight (hover to see other rain measurements)
** Current wind speed in m/s (hover to see current wind gust speed)